Putnam Station, New York
Current Conditions -  °F | °C
As of 11:35 PM on Wednesday 22 Oct 2014 (Local Time) from K6B0 Reporting Station
Overcast Overcast  
Wind Chill: 44°   Ceiling: 2600
Heat Index: 49°   Visibility: 10mi
Dew Point: 44°   Wind: 13mph
Humidity: 84%   Direction: 10°N
Pressure: 30"   Gusts: 18mph
Location:  43.74°N, 73.4°W
Report Text: K6B0 230335Z AUTO 01011G16KT 10SM OVC026 09/07 A3000 RMK AO2 LTG DSNT SE T00940068
Loading
Personal Weather Stations






























Interactive Weather Map New forecast layout! Learn more

10-Day Weather Forecast

Advertisements
Track Severe Weather on mobile